sensor_id;sensor_type;location;lat;lon;timestamp;temperature;humidity
8988;DHT22;4529;51.360;12.474;2023-09-19T00:01:43;18.90;99.90
8988;DHT22;4529;51.360;12.474;2023-09-19T00:06:47;18.90;99.90
8988;DHT22;4529;51.360;12.474;2023-09-19T00:11:50;18.90;99.90
8988;DHT22;4529;51.360;12.474;2023-09-19T00:16:54;18.90;99.90
8988;DHT22;4529;51.360;12.474;2023-09-19T00:21:57;18.90;99.90
8988;DHT22;4529;51.360;12.474;2023-09-19T00:27:01;18.80;99.90
8988;DHT22;4529;51.360;12.474;2023-09-19T00:32:04;18.80;99.90
8988;DHT22;4529;51.360;12.474;2023-09-19T00:37:07;18.90;99.90
8988;DHT22;4529;51.360;12.474;2023-09-19T00:42:17;18.90;99.90
8988;DHT22;4529;51.360;12.474;2023-09-19T00:47:15;18.80;99.90
8988;DHT22;4529;51.360;12.474;2023-09-19T00:52:19;18.90;99.90
8988;DHT22;4529;51.360;12.474;2023-09-19T00:57:22;18.90;99.90
8988;DHT22;4529;51.360;12.474;2023-09-19T01:02:26;18.80;99.90
8988;DHT22;4529;51.360;12.474;2023-09-19T01:07:29;18.80;99.90
8988;DHT22;4529;51.360;12.474;2023-09-19T01:12:35;18.70;99.90
8988;DHT22;4529;51.360;12.474;2023-09-19T01:17:50;18.60;99.90
8988;DHT22;4529;51.360;12.474;2023-09-19T01:34:14;18.50;99.90
8988;DHT22;4529;51.360;12.474;2023-09-19T01:38:32;18.50;99.90
8988;DHT22;4529;51.360;12.474;2023-09-19T01:43:41;18.40;99.90
8988;DHT22;4529;51.360;12.474;2023-09-19T01:54:12;18.40;99.90
8988;DHT22;4529;51.360;12.474;2023-09-19T01:59:24;18.30;99.90
8988;DHT22;4529;51.360;12.474;2023-09-19T02:04:22;18.30;99.90
8988;DHT22;4529;51.360;12.474;2023-09-19T02:09:25;18.20;99.90
8988;DHT22;4529;51.360;12.474;2023-09-19T02:14:29;18.30;99.90
8988;DHT22;4529;51.360;12.474;2023-09-19T02:19:32;18.30;99.90
8988;DHT22;4529;51.360;12.474;2023-09-19T02:24:36;18.30;99.90
8988;DHT22;4529;51.360;12.474;2023-09-19T02:29:39;18.30;99.90
8988;DHT22;4529;51.360;12.474;2023-09-19T02:34:43;18.40;99.90
8988;DHT22;4529;51.360;12.474;2023-09-19T02:39:46;18.40;99.90
8988;DHT22;4529;51.360;12.474;2023-09-19T02:44:50;18.40;99.90
8988;DHT22;4529;51.360;12.474;2023-09-19T02:49:54;18.40;99.90
8988;DHT22;4529;51.360;12.474;2023-09-19T02:54:58;18.50;99.90
8988;DHT22;4529;51.360;12.474;2023-09-19T03:00:02;18.60;99.90
8988;DHT22;4529;51.360;12.474;2023-09-19T03:05:06;18.60;99.90
8988;DHT22;4529;51.360;12.474;2023-09-19T03:10:10;18.60;99.90
8988;DHT22;4529;51.360;12.474;2023-09-19T03:15:14;18.50;99.90
8988;DHT22;4529;51.360;12.474;2023-09-19T03:20:17;18.50;99.90
8988;DHT22;4529;51.360;12.474;2023-09-19T03:25:21;18.50;99.90
8988;DHT22;4529;51.360;12.474;2023-09-19T03:30:25;18.50;99.90
8988;DHT22;4529;51.360;12.474;2023-09-19T03:35:29;18.50;99.90
8988;DHT22;4529;51.360;12.474;2023-09-19T03:40:33;18.60;99.90
8988;DHT22;4529;51.360;12.474;2023-09-19T03:45:37;18.50;99.90
8988;DHT22;4529;51.360;12.474;2023-09-19T03:50:41;18.50;99.90
8988;DHT22;4529;51.360;12.474;2023-09-19T03:55:45;18.60;99.90
8988;DHT22;4529;51.360;12.474;2023-09-19T04:00:49;18.50;99.90
8988;DHT22;4529;51.360;12.474;2023-09-19T04:05:52;18.60;99.90
8988;DHT22;4529;51.360;12.474;2023-09-19T04:10:56;18.60;99.90
8988;DHT22;4529;51.360;12.474;2023-09-19T04:15:59;18.60;99.90
8988;DHT22;4529;51.360;12.474;2023-09-19T04:21:03;18.60;99.90
8988;DHT22;4529;51.360;12.474;2023-09-19T04:26:06;18.60;99.90
8988;DHT22;4529;51.360;12.474;2023-09-19T04:31:10;18.60;99.90
8988;DHT22;4529;51.360;12.474;2023-09-19T04:36:13;18.60;99.90
8988;DHT22;4529;51.360;12.474;2023-09-19T04:41:17;18.50;99.90
8988;DHT22;4529;51.360;12.474;2023-09-19T04:46:21;18.60;99.90
8988;DHT22;4529;51.360;12.474;2023-09-19T04:51:25;18.50;99.90
8988;DHT22;4529;51.360;12.474;2023-09-19T04:56:28;18.50;99.90
8988;DHT22;4529;51.360;12.474;2023-09-19T05:01:32;18.50;99.90
8988;DHT22;4529;51.360;12.474;2023-09-19T05:06:37;18.40;99.90
8988;DHT22;4529;51.360;12.474;2023-09-19T05:11:41;18.50;99.90
8988;DHT22;4529;51.360;12.474;2023-09-19T05:16:45;18.40;99.90
8988;DHT22;4529;51.360;12.474;2023-09-19T05:21:49;18.40;99.90
8988;DHT22;4529;51.360;12.474;2023-09-19T05:26:52;18.40;99.90
8988;DHT22;4529;51.360;12.474;2023-09-19T05:31:56;18.40;99.90
8988;DHT22;4529;51.360;12.474;2023-09-19T05:36:59;18.40;99.90
8988;DHT22;4529;51.360;12.474;2023-09-19T05:42:03;18.30;99.90
8988;DHT22;4529;51.360;12.474;2023-09-19T05:47:06;18.30;99.90
8988;DHT22;4529;51.360;12.474;2023-09-19T05:52:10;18.30;99.90
8988;DHT22;4529;51.360;12.474;2023-09-19T05:57:13;18.20;99.90
8988;DHT22;4529;51.360;12.474;2023-09-19T06:02:17;18.20;99.90
8988;DHT22;4529;51.360;12.474;2023-09-19T06:07:21;18.20;99.90
8988;DHT22;4529;51.360;12.474;2023-09-19T06:12:24;18.20;99.90
8988;DHT22;4529;51.360;12.474;2023-09-19T06:17:28;18.10;99.90
8988;DHT22;4529;51.360;12.474;2023-09-19T06:22:32;18.10;99.90
8988;DHT22;4529;51.360;12.474;2023-09-19T06:27:36;18.10;99.90
8988;DHT22;4529;51.360;12.474;2023-09-19T06:32:41;18.10;99.90
8988;DHT22;4529;51.360;12.474;2023-09-19T06:37:44;18.20;99.90
8988;DHT22;4529;51.360;12.474;2023-09-19T06:42:50;18.30;99.90
8988;DHT22;4529;51.360;12.474;2023-09-19T06:47:52;18.50;99.90
8988;DHT22;4529;51.360;12.474;2023-09-19T06:52:56;18.60;99.90
8988;DHT22;4529;51.360;12.474;2023-09-19T06:58:00;18.60;99.90
8988;DHT22;4529;51.360;12.474;2023-09-19T07:03:08;18.70;99.90
8988;DHT22;4529;51.360;12.474;2023-09-19T07:08:11;18.70;99.90
8988;DHT22;4529;51.360;12.474;2023-09-19T07:13:15;18.90;99.90
8988;DHT22;4529;51.360;12.474;2023-09-19T07:18:18;19.00;99.90
8988;DHT22;4529;51.360;12.474;2023-09-19T07:23:21;19.10;99.90
8988;DHT22;4529;51.360;12.474;2023-09-19T07:28:25;19.30;99.90
8988;DHT22;4529;51.360;12.474;2023-09-19T07:33:28;19.30;99.90
8988;DHT22;4529;51.360;12.474;2023-09-19T07:38:32;19.30;99.90
8988;DHT22;4529;51.360;12.474;2023-09-19T07:43:35;19.30;99.90
8988;DHT22;4529;51.360;12.474;2023-09-19T07:48:39;19.80;99.90
8988;DHT22;4529;51.360;12.474;2023-09-19T07:53:43;20.00;99.90
8988;DHT22;4529;51.360;12.474;2023-09-19T07:58:47;20.00;99.90
8988;DHT22;4529;51.360;12.474;2023-09-19T08:03:52;20.00;99.90
8988;DHT22;4529;51.360;12.474;2023-09-19T08:08:56;20.10;99.90
8988;DHT22;4529;51.360;12.474;2023-09-19T08:14:00;20.00;99.90
8988;DHT22;4529;51.360;12.474;2023-09-19T08:19:04;20.00;99.90
8988;DHT22;4529;51.360;12.474;2023-09-19T08:24:08;19.90;99.90
8988;DHT22;4529;51.360;12.474;2023-09-19T08:29:12;19.80;99.90
8988;DHT22;4529;51.360;12.474;2023-09-19T08:34:16;19.80;99.90
8988;DHT22;4529;51.360;12.474;2023-09-19T08:39:19;19.80;99.90
8988;DHT22;4529;51.360;12.474;2023-09-19T08:44:23;19.70;99.90
8988;DHT22;4529;51.360;12.474;2023-09-19T08:49:58;19.70;99.90
8988;DHT22;4529;51.360;12.474;2023-09-19T08:54:58;19.80;99.90
8988;DHT22;4529;51.360;12.474;2023-09-19T09:00:01;19.70;99.90
8988;DHT22;4529;51.360;12.474;2023-09-19T09:05:05;19.90;99.90
8988;DHT22;4529;51.360;12.474;2023-09-19T09:10:08;20.00;99.90
8988;DHT22;4529;51.360;12.474;2023-09-19T09:15:11;20.30;99.90
8988;DHT22;4529;51.360;12.474;2023-09-19T09:20:15;20.50;99.90
8988;DHT22;4529;51.360;12.474;2023-09-19T09:25:18;20.60;99.90
8988;DHT22;4529;51.360;12.474;2023-09-19T09:30:37;20.70;99.90
8988;DHT22;4529;51.360;12.474;2023-09-19T09:35:56;20.70;99.90
8988;DHT22;4529;51.360;12.474;2023-09-19T09:40:59;20.80;99.90
8988;DHT22;4529;51.360;12.474;2023-09-19T09:46:12;20.90;99.90
8988;DHT22;4529;51.360;12.474;2023-09-19T09:51:15;20.90;99.90
8988;DHT22;4529;51.360;12.474;2023-09-19T09:56:18;21.00;99.90
8988;DHT22;4529;51.360;12.474;2023-09-19T10:01:22;21.10;99.90
8988;DHT22;4529;51.360;12.474;2023-09-19T10:06:25;21.10;99.90
8988;DHT22;4529;51.360;12.474;2023-09-19T10:11:29;21.00;99.90
8988;DHT22;4529;51.360;12.474;2023-09-19T10:16:32;21.00;99.90
8988;DHT22;4529;51.360;12.474;2023-09-19T10:21:36;20.90;99.90
8988;DHT22;4529;51.360;12.474;2023-09-19T10:26:39;20.80;99.90
8988;DHT22;4529;51.360;12.474;2023-09-19T10:31:43;20.80;99.90
8988;DHT22;4529;51.360;12.474;2023-09-19T10:36:46;20.70;99.90
8988;DHT22;4529;51.360;12.474;2023-09-19T10:41:53;20.80;99.90
8988;DHT22;4529;51.360;12.474;2023-09-19T10:46:56;20.90;99.90
8988;DHT22;4529;51.360;12.474;2023-09-19T10:51:59;20.90;99.90
8988;DHT22;4529;51.360;12.474;2023-09-19T10:57:03;20.90;99.90
8988;DHT22;4529;51.360;12.474;2023-09-19T11:02:18;21.00;99.90
8988;DHT22;4529;51.360;12.474;2023-09-19T11:07:22;21.10;99.90
8988;DHT22;4529;51.360;12.474;2023-09-19T11:17:35;21.10;99.90
8988;DHT22;4529;51.360;12.474;2023-09-19T11:33:31;21.10;99.90
8988;DHT22;4529;51.360;12.474;2023-09-19T11:43:49;21.20;99.90
8988;DHT22;4529;51.360;12.474;2023-09-19T11:48:52;21.40;99.90
8988;DHT22;4529;51.360;12.474;2023-09-19T11:53:57;21.40;99.90
8988;DHT22;4529;51.360;12.474;2023-09-19T11:58:59;21.50;99.90
8988;DHT22;4529;51.360;12.474;2023-09-19T12:04:03;21.50;99.90
8988;DHT22;4529;51.360;12.474;2023-09-19T12:09:07;21.50;99.90
8988;DHT22;4529;51.360;12.474;2023-09-19T12:14:10;21.60;99.90
8988;DHT22;4529;51.360;12.474;2023-09-19T12:19:20;21.80;99.90
8988;DHT22;4529;51.360;12.474;2023-09-19T12:24:24;21.80;99.90
8988;DHT22;4529;51.360;12.474;2023-09-19T12:29:27;21.80;99.90
8988;DHT22;4529;51.360;12.474;2023-09-19T12:34:34;21.70;99.90
8988;DHT22;4529;51.360;12.474;2023-09-19T12:39:44;21.70;99.90
8988;DHT22;4529;51.360;12.474;2023-09-19T12:44:48;21.60;99.90
8988;DHT22;4529;51.360;12.474;2023-09-19T12:50:13;21.70;99.90
8988;DHT22;4529;51.360;12.474;2023-09-19T12:55:30;21.60;99.90
8988;DHT22;4529;51.360;12.474;2023-09-19T13:00:35;21.70;99.90
8988;DHT22;4529;51.360;12.474;2023-09-19T13:05:53;21.70;99.90
8988;DHT22;4529;51.360;12.474;2023-09-19T13:11:11;21.70;99.90
8988;DHT22;4529;51.360;12.474;2023-09-19T13:16:14;21.90;99.90
8988;DHT22;4529;51.360;12.474;2023-09-19T13:21:27;22.00;99.90
8988;DHT22;4529;51.360;12.474;2023-09-19T13:26:21;22.00;99.90
8988;DHT22;4529;51.360;12.474;2023-09-19T13:31:24;22.10;99.90
8988;DHT22;4529;51.360;12.474;2023-09-19T13:36:28;22.10;99.90
8988;DHT22;4529;51.360;12.474;2023-09-19T13:41:31;22.10;99.90
8988;DHT22;4529;51.360;12.474;2023-09-19T13:46:35;22.10;99.90
8988;DHT22;4529;51.360;12.474;2023-09-19T13:51:38;22.10;99.90
8988;DHT22;4529;51.360;12.474;2023-09-19T13:56:42;22.10;99.90
8988;DHT22;4529;51.360;12.474;2023-09-19T14:01:45;22.10;99.90
8988;DHT22;4529;51.360;12.474;2023-09-19T14:06:49;22.10;99.90
8988;DHT22;4529;51.360;12.474;2023-09-19T14:11:52;22.10;99.90
8988;DHT22;4529;51.360;12.474;2023-09-19T14:16:56;22.10;99.90
8988;DHT22;4529;51.360;12.474;2023-09-19T14:21:59;22.10;99.90
8988;DHT22;4529;51.360;12.474;2023-09-19T14:27:03;22.20;99.90
8988;DHT22;4529;51.360;12.474;2023-09-19T14:32:07;22.10;99.90
8988;DHT22;4529;51.360;12.474;2023-09-19T14:37:10;22.10;99.90
8988;DHT22;4529;51.360;12.474;2023-09-19T14:42:14;22.10;99.90
8988;DHT22;4529;51.360;12.474;2023-09-19T14:47:17;22.10;99.90
8988;DHT22;4529;51.360;12.474;2023-09-19T14:52:21;22.10;99.90
8988;DHT22;4529;51.360;12.474;2023-09-19T14:57:24;22.10;99.90
8988;DHT22;4529;51.360;12.474;2023-09-19T15:02:28;22.10;99.90
8988;DHT22;4529;51.360;12.474;2023-09-19T15:07:32;22.10;99.90
8988;DHT22;4529;51.360;12.474;2023-09-19T15:12:36;22.00;99.90
8988;DHT22;4529;51.360;12.474;2023-09-19T15:17:40;22.00;99.90
8988;DHT22;4529;51.360;12.474;2023-09-19T15:22:44;22.00;99.90
8988;DHT22;4529;51.360;12.474;2023-09-19T15:27:48;22.10;99.90
8988;DHT22;4529;51.360;12.474;2023-09-19T15:32:52;22.10;99.90
8988;DHT22;4529;51.360;12.474;2023-09-19T15:37:56;22.00;99.90
8988;DHT22;4529;51.360;12.474;2023-09-19T15:43:01;22.00;99.90
8988;DHT22;4529;51.360;12.474;2023-09-19T15:48:05;21.90;99.90
8988;DHT22;4529;51.360;12.474;2023-09-19T15:53:09;21.70;99.90
8988;DHT22;4529;51.360;12.474;2023-09-19T15:58:13;21.50;99.90
8988;DHT22;4529;51.360;12.474;2023-09-19T16:03:17;21.50;99.90
8988;DHT22;4529;51.360;12.474;2023-09-19T16:08:21;21.40;99.90
8988;DHT22;4529;51.360;12.474;2023-09-19T16:13:25;21.40;99.90
8988;DHT22;4529;51.360;12.474;2023-09-19T16:18:30;21.50;99.90
8988;DHT22;4529;51.360;12.474;2023-09-19T16:23:34;21.40;99.90
8988;DHT22;4529;51.360;12.474;2023-09-19T16:28:38;21.40;99.90
8988;DHT22;4529;51.360;12.474;2023-09-19T16:33:44;21.30;99.90
8988;DHT22;4529;51.360;12.474;2023-09-19T16:38:47;21.20;99.90
8988;DHT22;4529;51.360;12.474;2023-09-19T16:43:50;21.10;99.90
8988;DHT22;4529;51.360;12.474;2023-09-19T16:48:54;21.10;99.90
8988;DHT22;4529;51.360;12.474;2023-09-19T16:53:59;21.00;99.90
8988;DHT22;4529;51.360;12.474;2023-09-19T16:59:02;21.10;99.90
8988;DHT22;4529;51.360;12.474;2023-09-19T17:04:05;21.00;99.90
8988;DHT22;4529;51.360;12.474;2023-09-19T17:09:09;20.80;99.90
8988;DHT22;4529;51.360;12.474;2023-09-19T17:14:12;20.70;99.90
8988;DHT22;4529;51.360;12.474;2023-09-19T17:19:16;20.60;99.90
8988;DHT22;4529;51.360;12.474;2023-09-19T17:24:19;20.60;99.90
8988;DHT22;4529;51.360;12.474;2023-09-19T17:29:23;20.40;99.90
8988;DHT22;4529;51.360;12.474;2023-09-19T17:34:26;20.40;99.90
8988;DHT22;4529;51.360;12.474;2023-09-19T17:39:30;20.40;99.90
8988;DHT22;4529;51.360;12.474;2023-09-19T17:44:33;20.30;99.90
8988;DHT22;4529;51.360;12.474;2023-09-19T17:49:37;20.20;99.90
8988;DHT22;4529;51.360;12.474;2023-09-19T17:54:40;20.10;99.90
8988;DHT22;4529;51.360;12.474;2023-09-19T17:59:44;20.10;99.90
8988;DHT22;4529;51.360;12.474;2023-09-19T18:04:47;19.90;99.90
8988;DHT22;4529;51.360;12.474;2023-09-19T18:09:51;19.50;99.90
8988;DHT22;4529;51.360;12.474;2023-09-19T18:14:55;19.30;99.90
8988;DHT22;4529;51.360;12.474;2023-09-19T18:19:59;19.30;99.90
8988;DHT22;4529;51.360;12.474;2023-09-19T18:25:03;19.30;99.90
8988;DHT22;4529;51.360;12.474;2023-09-19T18:30:07;19.30;99.90
8988;DHT22;4529;51.360;12.474;2023-09-19T18:35:10;19.30;99.90
8988;DHT22;4529;51.360;12.474;2023-09-19T18:40:14;19.30;99.90
8988;DHT22;4529;51.360;12.474;2023-09-19T18:45:17;19.30;99.90
8988;DHT22;4529;51.360;12.474;2023-09-19T18:50:21;19.20;99.90
8988;DHT22;4529;51.360;12.474;2023-09-19T18:55:24;19.20;99.90
8988;DHT22;4529;51.360;12.474;2023-09-19T19:00:27;19.30;99.90
8988;DHT22;4529;51.360;12.474;2023-09-19T19:05:34;19.10;99.90
8988;DHT22;4529;51.360;12.474;2023-09-19T19:10:41;19.00;99.90
8988;DHT22;4529;51.360;12.474;2023-09-19T19:15:44;19.00;99.90
8988;DHT22;4529;51.360;12.474;2023-09-19T19:20:55;18.90;99.90
8988;DHT22;4529;51.360;12.474;2023-09-19T19:25:51;18.90;99.90
8988;DHT22;4529;51.360;12.474;2023-09-19T19:30:54;18.90;99.90
8988;DHT22;4529;51.360;12.474;2023-09-19T19:36:07;18.90;99.90
8988;DHT22;4529;51.360;12.474;2023-09-19T19:41:10;18.70;99.90
8988;DHT22;4529;51.360;12.474;2023-09-19T19:46:13;18.60;99.90
8988;DHT22;4529;51.360;12.474;2023-09-19T19:51:17;18.40;99.90
8988;DHT22;4529;51.360;12.474;2023-09-19T19:56:20;18.20;99.90
8988;DHT22;4529;51.360;12.474;2023-09-19T20:01:24;18.00;99.90
8988;DHT22;4529;51.360;12.474;2023-09-19T20:06:27;18.00;99.90
8988;DHT22;4529;51.360;12.474;2023-09-19T20:11:31;17.90;99.90
8988;DHT22;4529;51.360;12.474;2023-09-19T20:16:35;17.80;99.90
8988;DHT22;4529;51.360;12.474;2023-09-19T20:21:39;17.70;99.90
8988;DHT22;4529;51.360;12.474;2023-09-19T20:26:43;17.70;99.90
8988;DHT22;4529;51.360;12.474;2023-09-19T20:31:47;17.70;99.90
8988;DHT22;4529;51.360;12.474;2023-09-19T20:36:51;17.60;99.90
8988;DHT22;4529;51.360;12.474;2023-09-19T20:41:56;17.60;99.90
8988;DHT22;4529;51.360;12.474;2023-09-19T20:47:00;17.50;99.90
8988;DHT22;4529;51.360;12.474;2023-09-19T20:52:05;17.40;99.90
8988;DHT22;4529;51.360;12.474;2023-09-19T20:57:08;17.40;99.90
8988;DHT22;4529;51.360;12.474;2023-09-19T21:02:11;17.30;99.90
8988;DHT22;4529;51.360;12.474;2023-09-19T21:07:15;17.30;99.90
8988;DHT22;4529;51.360;12.474;2023-09-19T21:12:19;17.30;99.90
8988;DHT22;4529;51.360;12.474;2023-09-19T21:17:22;17.20;99.90
8988;DHT22;4529;51.360;12.474;2023-09-19T21:22:26;17.30;99.90
8988;DHT22;4529;51.360;12.474;2023-09-19T21:27:29;17.40;99.90
8988;DHT22;4529;51.360;12.474;2023-09-19T21:32:33;17.50;99.90
8988;DHT22;4529;51.360;12.474;2023-09-19T21:37:36;17.30;99.90
8988;DHT22;4529;51.360;12.474;2023-09-19T21:42:40;17.30;99.90
8988;DHT22;4529;51.360;12.474;2023-09-19T21:47:43;17.00;99.90
8988;DHT22;4529;51.360;12.474;2023-09-19T21:52:47;16.70;99.90
8988;DHT22;4529;51.360;12.474;2023-09-19T21:57:50;16.50;99.90
8988;DHT22;4529;51.360;12.474;2023-09-19T22:02:54;16.40;99.90
8988;DHT22;4529;51.360;12.474;2023-09-19T22:07:58;16.00;99.90
8988;DHT22;4529;51.360;12.474;2023-09-19T22:13:02;15.90;99.90
8988;DHT22;4529;51.360;12.474;2023-09-19T22:18:06;15.80;99.90
8988;DHT22;4529;51.360;12.474;2023-09-19T22:23:11;15.70;99.90
8988;DHT22;4529;51.360;12.474;2023-09-19T22:28:14;15.50;99.90
8988;DHT22;4529;51.360;12.474;2023-09-19T22:33:18;15.40;99.90
8988;DHT22;4529;51.360;12.474;2023-09-19T22:38:23;15.30;99.90
8988;DHT22;4529;51.360;12.474;2023-09-19T22:43:27;15.30;99.90
8988;DHT22;4529;51.360;12.474;2023-09-19T22:48:30;15.30;99.90
8988;DHT22;4529;51.360;12.474;2023-09-19T22:53:34;15.30;99.90
8988;DHT22;4529;51.360;12.474;2023-09-19T22:58:40;15.40;99.90
8988;DHT22;4529;51.360;12.474;2023-09-19T23:03:44;15.50;99.90
8988;DHT22;4529;51.360;12.474;2023-09-19T23:08:53;15.50;99.90
8988;DHT22;4529;51.360;12.474;2023-09-19T23:13:56;15.50;99.90
8988;DHT22;4529;51.360;12.474;2023-09-19T23:19:00;15.70;99.90
8988;DHT22;4529;51.360;12.474;2023-09-19T23:24:03;15.90;99.90
8988;DHT22;4529;51.360;12.474;2023-09-19T23:29:07;15.90;99.90
8988;DHT22;4529;51.360;12.474;2023-09-19T23:34:12;15.90;99.90
8988;DHT22;4529;51.360;12.474;2023-09-19T23:39:15;15.70;99.90
8988;DHT22;4529;51.360;12.474;2023-09-19T23:44:20;15.50;99.90
8988;DHT22;4529;51.360;12.474;2023-09-19T23:49:24;15.50;99.90
8988;DHT22;4529;51.360;12.474;2023-09-19T23:54:28;15.40;99.90
8988;DHT22;4529;51.360;12.474;2023-09-19T23:59:32;15.50;99.90
